sensor_id;sensor_type;location;lat;lon;timestamp;P1;durP1;ratioP1;P2;durP2;ratioP2
49582;SDS011;36329;48.816;44.624;2022-12-20T00:00:30;4.4;;;2.4;;
49582;SDS011;36329;48.816;44.624;2022-12-20T00:03:32;3.9;;;2.6;;
49582;SDS011;36329;48.816;44.624;2022-12-20T00:06:33;3.8;;;2.5;;
49582;SDS011;36329;48.816;44.624;2022-12-20T00:09:35;5.7;;;2.7;;
49582;SDS011;36329;48.816;44.624;2022-12-20T00:12:37;5.7;;;2.6;;
49582;SDS011;36329;48.816;44.624;2022-12-20T00:15:38;8.8;;;3.3;;
49582;SDS011;36329;48.816;44.624;2022-12-20T00:18:40;10.2;;;4.5;;
49582;SDS011;36329;48.816;44.624;2022-12-20T00:21:42;8.4;;;4.4;;
49582;SDS011;36329;48.816;44.624;2022-12-20T00:24:43;8.8;;;3.5;;
49582;SDS011;36329;48.816;44.624;2022-12-20T00:27:45;6.7;;;3.3;;
49582;SDS011;36329;48.816;44.624;2022-12-20T00:30:52;6.8;;;3.5;;
49582;SDS011;36329;48.816;44.624;2022-12-20T00:33:54;6.1;;;3.4;;
49582;SDS011;36329;48.816;44.624;2022-12-20T00:36:59;6.5;;;3.3;;
49582;SDS011;36329;48.816;44.624;2022-12-20T00:40:00;10.1;;;3.6;;
49582;SDS011;36329;48.816;44.624;2022-12-20T00:43:04;10;;;3.9;;
49582;SDS011;36329;48.816;44.624;2022-12-20T00:46:06;7.5;;;3.7;;
49582;SDS011;36329;48.816;44.624;2022-12-20T00:49:09;7.8;;;3.7;;
49582;SDS011;36329;48.816;44.624;2022-12-20T00:52:11;6.1;;;3.3;;
49582;SDS011;36329;48.816;44.624;2022-12-20T00:55:12;5.6;;;3.4;;
49582;SDS011;36329;48.816;44.624;2022-12-20T00:58:14;7.8;;;3.4;;
49582;SDS011;36329;48.816;44.624;2022-12-20T01:01:17;8.7;;;3.6;;
49582;SDS011;36329;48.816;44.624;2022-12-20T01:04:20;7.2;;;3.1;;
49582;SDS011;36329;48.816;44.624;2022-12-20T01:07:22;5.6;;;3.5;;
49582;SDS011;36329;48.816;44.624;2022-12-20T01:10:23;6.1;;;3.3;;
49582;SDS011;36329;48.816;44.624;2022-12-20T01:13:25;7;;;3.4;;
49582;SDS011;36329;48.816;44.624;2022-12-20T01:16:28;7.2;;;3.2;;
49582;SDS011;36329;48.816;44.624;2022-12-20T01:19:32;5.9;;;3.5;;
49582;SDS011;36329;48.816;44.624;2022-12-20T01:22:34;6.1;;;3.3;;
49582;SDS011;36329;48.816;44.624;2022-12-20T01:25:36;10.4;;;3.9;;
49582;SDS011;36329;48.816;44.624;2022-12-20T01:28:39;5.9;;;3.3;;
49582;SDS011;36329;48.816;44.624;2022-12-20T01:31:41;5.9;;;3.2;;
49582;SDS011;36329;48.816;44.624;2022-12-20T01:34:44;4.3;;;2.9;;
49582;SDS011;36329;48.816;44.624;2022-12-20T01:37:46;6.5;;;3.4;;
49582;SDS011;36329;48.816;44.624;2022-12-20T01:40:48;6.8;;;3.5;;
49582;SDS011;36329;48.816;44.624;2022-12-20T01:43:50;4.9;;;2.9;;
49582;SDS011;36329;48.816;44.624;2022-12-20T01:46:53;8.2;;;3.4;;
49582;SDS011;36329;48.816;44.624;2022-12-20T01:49:55;6;;;3;;
49582;SDS011;36329;48.816;44.624;2022-12-20T01:52:59;6.4;;;3.8;;
49582;SDS011;36329;48.816;44.624;2022-12-20T01:56:02;4.5;;;2.8;;
49582;SDS011;36329;48.816;44.624;2022-12-20T01:59:06;5.3;;;3.4;;
49582;SDS011;36329;48.816;44.624;2022-12-20T02:02:09;5.4;;;3.2;;
49582;SDS011;36329;48.816;44.624;2022-12-20T02:05:13;5.9;;;3.2;;
49582;SDS011;36329;48.816;44.624;2022-12-20T02:08:15;6.5;;;3.5;;
49582;SDS011;36329;48.816;44.624;2022-12-20T02:11:23;6.1;;;3.3;;
49582;SDS011;36329;48.816;44.624;2022-12-20T02:14:41;6.1;;;3.1;;
49582;SDS011;36329;48.816;44.624;2022-12-20T02:17:58;5;;;3;;
49582;SDS011;36329;48.816;44.624;2022-12-20T02:21:11;5;;;3.3;;
49582;SDS011;36329;48.816;44.624;2022-12-20T02:24:28;6.4;;;3.1;;
49582;SDS011;36329;48.816;44.624;2022-12-20T02:27:41;5.1;;;3.1;;
49582;SDS011;36329;48.816;44.624;2022-12-20T02:30:47;6.9;;;3.2;;
49582;SDS011;36329;48.816;44.624;2022-12-20T02:33:53;7.9;;;3.3;;
49582;SDS011;36329;48.816;44.624;2022-12-20T02:36:58;5.3;;;3.3;;
49582;SDS011;36329;48.816;44.624;2022-12-20T02:39:59;6.1;;;3.4;;
49582;SDS011;36329;48.816;44.624;2022-12-20T02:43:05;6.8;;;3;;
49582;SDS011;36329;48.816;44.624;2022-12-20T02:46:09;5.6;;;3.5;;
49582;SDS011;36329;48.816;44.624;2022-12-20T02:49:13;5.3;;;3.1;;
49582;SDS011;36329;48.816;44.624;2022-12-20T02:52:17;6.6;;;3.2;;
49582;SDS011;36329;48.816;44.624;2022-12-20T02:55:26;7;;;3.5;;
49582;SDS011;36329;48.816;44.624;2022-12-20T02:58:33;5.6;;;3.4;;
49582;SDS011;36329;48.816;44.624;2022-12-20T03:01:39;5.8;;;3.2;;
49582;SDS011;36329;48.816;44.624;2022-12-20T03:04:46;5.3;;;3.2;;
49582;SDS011;36329;48.816;44.624;2022-12-20T03:07:49;5;;;3.2;;
49582;SDS011;36329;48.816;44.624;2022-12-20T03:10:51;7.6;;;3.1;;
49582;SDS011;36329;48.816;44.624;2022-12-20T03:13:54;5.1;;;3.1;;
49582;SDS011;36329;48.816;44.624;2022-12-20T03:16:56;4.7;;;2.9;;
49582;SDS011;36329;48.816;44.624;2022-12-20T03:19:57;4.6;;;3.1;;
49582;SDS011;36329;48.816;44.624;2022-12-20T03:22:59;4.6;;;2.9;;
49582;SDS011;36329;48.816;44.624;2022-12-20T03:26:00;7;;;3.4;;
49582;SDS011;36329;48.816;44.624;2022-12-20T03:29:02;5.8;;;3.1;;
49582;SDS011;36329;48.816;44.624;2022-12-20T03:32:04;4.7;;;2.8;;
49582;SDS011;36329;48.816;44.624;2022-12-20T03:35:06;5.9;;;2.8;;
49582;SDS011;36329;48.816;44.624;2022-12-20T03:38:08;4.5;;;2.9;;
49582;SDS011;36329;48.816;44.624;2022-12-20T03:41:09;5.9;;;2.7;;
49582;SDS011;36329;48.816;44.624;2022-12-20T03:44:10;4.6;;;2.9;;
49582;SDS011;36329;48.816;44.624;2022-12-20T03:47:12;4.1;;;2.7;;
49582;SDS011;36329;48.816;44.624;2022-12-20T03:50:14;6.8;;;3.5;;
49582;SDS011;36329;48.816;44.624;2022-12-20T03:53:15;5.8;;;2.8;;
49582;SDS011;36329;48.816;44.624;2022-12-20T03:56:17;8.1;;;3.1;;
49582;SDS011;36329;48.816;44.624;2022-12-20T03:59:19;4.6;;;2.5;;
49582;SDS011;36329;48.816;44.624;2022-12-20T04:02:20;5;;;3;;
49582;SDS011;36329;48.816;44.624;2022-12-20T04:05:23;4.7;;;2.8;;
49582;SDS011;36329;48.816;44.624;2022-12-20T04:08:24;5.5;;;2.7;;
49582;SDS011;36329;48.816;44.624;2022-12-20T04:11:26;4.1;;;2.7;;
49582;SDS011;36329;48.816;44.624;2022-12-20T04:14:28;4;;;2.7;;
49582;SDS011;36329;48.816;44.624;2022-12-20T04:17:29;6.5;;;2.6;;
49582;SDS011;36329;48.816;44.624;2022-12-20T04:20:31;6.9;;;2.4;;
49582;SDS011;36329;48.816;44.624;2022-12-20T04:23:33;4.3;;;2.6;;
49582;SDS011;36329;48.816;44.624;2022-12-20T04:26:35;5.4;;;2.5;;
49582;SDS011;36329;48.816;44.624;2022-12-20T04:29:36;5.5;;;2.2;;
49582;SDS011;36329;48.816;44.624;2022-12-20T04:32:38;3.1;;;2.1;;
49582;SDS011;36329;48.816;44.624;2022-12-20T04:35:40;3;;;2.1;;
49582;SDS011;36329;48.816;44.624;2022-12-20T04:38:41;3.2;;;2.2;;
49582;SDS011;36329;48.816;44.624;2022-12-20T04:41:43;4.1;;;2.2;;
49582;SDS011;36329;48.816;44.624;2022-12-20T04:44:44;2.7;;;2.1;;
49582;SDS011;36329;48.816;44.624;2022-12-20T04:47:46;5.1;;;2.1;;
49582;SDS011;36329;48.816;44.624;2022-12-20T04:50:47;2.9;;;1.9;;
49582;SDS011;36329;48.816;44.624;2022-12-20T04:53:50;3.4;;;2.2;;
49582;SDS011;36329;48.816;44.624;2022-12-20T04:56:51;3.7;;;2;;
49582;SDS011;36329;48.816;44.624;2022-12-20T04:59:53;6.7;;;2.3;;
49582;SDS011;36329;48.816;44.624;2022-12-20T05:02:54;5.2;;;1.9;;
49582;SDS011;36329;48.816;44.624;2022-12-20T05:05:57;5.1;;;2.3;;
49582;SDS011;36329;48.816;44.624;2022-12-20T05:08:58;4.3;;;2.4;;
49582;SDS011;36329;48.816;44.624;2022-12-20T05:12:00;3.3;;;2.2;;
49582;SDS011;36329;48.816;44.624;2022-12-20T05:15:02;4.3;;;2.3;;
49582;SDS011;36329;48.816;44.624;2022-12-20T05:18:04;3;;;1.9;;
49582;SDS011;36329;48.816;44.624;2022-12-20T05:21:06;4.1;;;2.2;;
49582;SDS011;36329;48.816;44.624;2022-12-20T05:24:08;4.6;;;2.4;;
49582;SDS011;36329;48.816;44.624;2022-12-20T05:27:10;3.8;;;2.3;;
49582;SDS011;36329;48.816;44.624;2022-12-20T05:30:11;4.1;;;2.5;;
49582;SDS011;36329;48.816;44.624;2022-12-20T05:33:13;3.4;;;2.3;;
49582;SDS011;36329;48.816;44.624;2022-12-20T05:36:15;5.8;;;2.2;;
49582;SDS011;36329;48.816;44.624;2022-12-20T05:39:16;5.5;;;2.6;;
49582;SDS011;36329;48.816;44.624;2022-12-20T05:42:18;8.3;;;3;;
49582;SDS011;36329;48.816;44.624;2022-12-20T05:45:19;5.9;;;2.4;;
49582;SDS011;36329;48.816;44.624;2022-12-20T05:48:21;5.1;;;2.6;;
49582;SDS011;36329;48.816;44.624;2022-12-20T05:51:23;4.7;;;2.4;;
49582;SDS011;36329;48.816;44.624;2022-12-20T05:54:24;4.6;;;2.2;;
49582;SDS011;36329;48.816;44.624;2022-12-20T05:57:26;3.9;;;2.5;;
49582;SDS011;36329;48.816;44.624;2022-12-20T06:00:28;5.5;;;2.6;;
49582;SDS011;36329;48.816;44.624;2022-12-20T06:03:29;3.6;;;2.2;;
49582;SDS011;36329;48.816;44.624;2022-12-20T06:06:31;3.8;;;2.4;;
49582;SDS011;36329;48.816;44.624;2022-12-20T06:09:33;5;;;2.5;;
49582;SDS011;36329;48.816;44.624;2022-12-20T06:12:35;4.7;;;2.2;;
49582;SDS011;36329;48.816;44.624;2022-12-20T06:15:36;4.6;;;2.5;;
49582;SDS011;36329;48.816;44.624;2022-12-20T06:18:41;5.6;;;2.6;;
49582;SDS011;36329;48.816;44.624;2022-12-20T06:21:43;4.4;;;2.7;;
49582;SDS011;36329;48.816;44.624;2022-12-20T06:24:45;4.5;;;2.2;;
49582;SDS011;36329;48.816;44.624;2022-12-20T06:27:46;5.2;;;2.6;;
49582;SDS011;36329;48.816;44.624;2022-12-20T06:30:51;5.3;;;2.6;;
49582;SDS011;36329;48.816;44.624;2022-12-20T06:33:53;4.8;;;2.6;;
49582;SDS011;36329;48.816;44.624;2022-12-20T06:36:54;7.3;;;2.8;;
49582;SDS011;36329;48.816;44.624;2022-12-20T06:39:56;5.7;;;3.6;;
49582;SDS011;36329;48.816;44.624;2022-12-20T06:42:58;5.1;;;3.2;;
49582;SDS011;36329;48.816;44.624;2022-12-20T06:45:59;7.7;;;3.6;;
49582;SDS011;36329;48.816;44.624;2022-12-20T06:49:01;5.1;;;3;;
49582;SDS011;36329;48.816;44.624;2022-12-20T06:52:03;4.1;;;2.7;;
49582;SDS011;36329;48.816;44.624;2022-12-20T06:55:04;5.1;;;2.6;;
49582;SDS011;36329;48.816;44.624;2022-12-20T06:58:06;4.6;;;2.9;;
49582;SDS011;36329;48.816;44.624;2022-12-20T07:01:08;7.5;;;3.2;;
49582;SDS011;36329;48.816;44.624;2022-12-20T07:04:09;7.8;;;2.4;;
49582;SDS011;36329;48.816;44.624;2022-12-20T07:07:11;4.7;;;2.5;;
49582;SDS011;36329;48.816;44.624;2022-12-20T07:10:14;5.5;;;2.8;;
49582;SDS011;36329;48.816;44.624;2022-12-20T07:13:16;4.7;;;2.5;;
49582;SDS011;36329;48.816;44.624;2022-12-20T07:16:17;5.7;;;2.7;;
49582;SDS011;36329;48.816;44.624;2022-12-20T07:19:20;7.6;;;3;;
49582;SDS011;36329;48.816;44.624;2022-12-20T07:22:22;6.9;;;3.5;;
49582;SDS011;36329;48.816;44.624;2022-12-20T07:25:23;6.7;;;3.5;;
49582;SDS011;36329;48.816;44.624;2022-12-20T07:28:25;6.6;;;2.7;;
49582;SDS011;36329;48.816;44.624;2022-12-20T07:31:28;5.4;;;2.8;;
49582;SDS011;36329;48.816;44.624;2022-12-20T07:34:29;4.4;;;2.6;;
49582;SDS011;36329;48.816;44.624;2022-12-20T07:37:31;3.6;;;2.5;;
49582;SDS011;36329;48.816;44.624;2022-12-20T07:40:33;4;;;2.6;;
49582;SDS011;36329;48.816;44.624;2022-12-20T07:43:35;4.6;;;2.6;;
49582;SDS011;36329;48.816;44.624;2022-12-20T07:46:37;5.9;;;3.2;;
49582;SDS011;36329;48.816;44.624;2022-12-20T07:49:39;5.3;;;2.9;;
49582;SDS011;36329;48.816;44.624;2022-12-20T07:52:41;4.9;;;2.7;;
49582;SDS011;36329;48.816;44.624;2022-12-20T07:55:46;4.5;;;2.5;;
49582;SDS011;36329;48.816;44.624;2022-12-20T07:58:49;4.6;;;2.6;;
49582;SDS011;36329;48.816;44.624;2022-12-20T08:01:54;4.9;;;2.8;;
49582;SDS011;36329;48.816;44.624;2022-12-20T08:04:56;4.7;;;2.5;;
49582;SDS011;36329;48.816;44.624;2022-12-20T08:07:58;4.8;;;3;;
49582;SDS011;36329;48.816;44.624;2022-12-20T08:11:00;5.3;;;2.8;;
49582;SDS011;36329;48.816;44.624;2022-12-20T08:14:03;6.9;;;3.6;;
49582;SDS011;36329;48.816;44.624;2022-12-20T08:17:06;5.8;;;3.3;;
49582;SDS011;36329;48.816;44.624;2022-12-20T08:20:08;5.5;;;3.3;;
49582;SDS011;36329;48.816;44.624;2022-12-20T08:23:10;4.5;;;3;;
49582;SDS011;36329;48.816;44.624;2022-12-20T08:26:12;6.3;;;3.4;;
49582;SDS011;36329;48.816;44.624;2022-12-20T08:29:13;5.8;;;3.4;;
49582;SDS011;36329;48.816;44.624;2022-12-20T08:32:15;5.8;;;3.7;;
49582;SDS011;36329;48.816;44.624;2022-12-20T08:35:16;5.3;;;3.6;;
49582;SDS011;36329;48.816;44.624;2022-12-20T08:38:18;7.2;;;3.5;;
49582;SDS011;36329;48.816;44.624;2022-12-20T08:41:20;5.9;;;3.5;;
49582;SDS011;36329;48.816;44.624;2022-12-20T08:44:22;6;;;3.2;;
49582;SDS011;36329;48.816;44.624;2022-12-20T08:47:24;5.6;;;3.1;;
49582;SDS011;36329;48.816;44.624;2022-12-20T08:50:25;5.9;;;3.2;;
49582;SDS011;36329;48.816;44.624;2022-12-20T08:53:28;5.6;;;3.3;;
49582;SDS011;36329;48.816;44.624;2022-12-20T08:56:31;7.1;;;3.4;;
49582;SDS011;36329;48.816;44.624;2022-12-20T08:59:33;6.9;;;3.1;;
49582;SDS011;36329;48.816;44.624;2022-12-20T09:02:34;6.5;;;3.4;;
49582;SDS011;36329;48.816;44.624;2022-12-20T09:05:40;7.3;;;3.3;;
49582;SDS011;36329;48.816;44.624;2022-12-20T09:08:44;5.6;;;3.3;;
49582;SDS011;36329;48.816;44.624;2022-12-20T09:11:47;7.2;;;3.8;;
49582;SDS011;36329;48.816;44.624;2022-12-20T09:14:49;6.8;;;3.7;;
49582;SDS011;36329;48.816;44.624;2022-12-20T09:17:50;7.2;;;3.4;;
49582;SDS011;36329;48.816;44.624;2022-12-20T09:20:52;5.6;;;3.5;;
49582;SDS011;36329;48.816;44.624;2022-12-20T09:23:54;6.7;;;3.5;;
49582;SDS011;36329;48.816;44.624;2022-12-20T09:26:57;5.5;;;3.4;;
49582;SDS011;36329;48.816;44.624;2022-12-20T09:29:59;5.6;;;3.4;;
49582;SDS011;36329;48.816;44.624;2022-12-20T09:33:00;5.2;;;3.2;;
49582;SDS011;36329;48.816;44.624;2022-12-20T09:36:03;6.5;;;3.5;;
49582;SDS011;36329;48.816;44.624;2022-12-20T09:39:04;8.1;;;4.1;;
49582;SDS011;36329;48.816;44.624;2022-12-20T09:42:06;5.4;;;3.4;;
49582;SDS011;36329;48.816;44.624;2022-12-20T09:45:11;5.9;;;3.4;;
49582;SDS011;36329;48.816;44.624;2022-12-20T09:48:20;5.5;;;3.4;;
49582;SDS011;36329;48.816;44.624;2022-12-20T09:51:30;4.6;;;2.9;;
49582;SDS011;36329;48.816;44.624;2022-12-20T09:54:45;5.7;;;3.2;;
49582;SDS011;36329;48.816;44.624;2022-12-20T09:57:57;5.3;;;3.2;;
49582;SDS011;36329;48.816;44.624;2022-12-20T10:01:14;6.7;;;2.8;;
49582;SDS011;36329;48.816;44.624;2022-12-20T10:04:20;4;;;2.8;;
49582;SDS011;36329;48.816;44.624;2022-12-20T10:07:28;7.5;;;3.3;;
49582;SDS011;36329;48.816;44.624;2022-12-20T10:10:40;6.1;;;2.9;;
49582;SDS011;36329;48.816;44.624;2022-12-20T10:13:55;6.2;;;2.9;;
49582;SDS011;36329;48.816;44.624;2022-12-20T10:17:10;6.1;;;2.9;;
49582;SDS011;36329;48.816;44.624;2022-12-20T10:20:20;6.3;;;2.9;;
49582;SDS011;36329;48.816;44.624;2022-12-20T10:23:31;5;;;2.9;;
49582;SDS011;36329;48.816;44.624;2022-12-20T10:26:38;14.6;;;6.8;;
49582;SDS011;36329;48.816;44.624;2022-12-20T10:29:40;4.9;;;2.8;;
49582;SDS011;36329;48.816;44.624;2022-12-20T10:32:45;6.9;;;3;;
49582;SDS011;36329;48.816;44.624;2022-12-20T10:35:48;5.9;;;3.4;;
49582;SDS011;36329;48.816;44.624;2022-12-20T10:38:51;6;;;2.9;;
49582;SDS011;36329;48.816;44.624;2022-12-20T10:41:54;5;;;2.7;;
49582;SDS011;36329;48.816;44.624;2022-12-20T10:44:55;4.7;;;2.9;;
49582;SDS011;36329;48.816;44.624;2022-12-20T10:47:58;5;;;3.1;;
49582;SDS011;36329;48.816;44.624;2022-12-20T10:51:02;5;;;3.2;;
49582;SDS011;36329;48.816;44.624;2022-12-20T10:54:20;5.3;;;3.2;;
49582;SDS011;36329;48.816;44.624;2022-12-20T10:57:24;5;;;3.1;;
49582;SDS011;36329;48.816;44.624;2022-12-20T11:00:28;5.2;;;3.3;;
49582;SDS011;36329;48.816;44.624;2022-12-20T11:03:31;4.7;;;3.2;;
49582;SDS011;36329;48.816;44.624;2022-12-20T11:06:41;5;;;3.2;;
49582;SDS011;36329;48.816;44.624;2022-12-20T11:09:51;3.6;;;2.6;;
49582;SDS011;36329;48.816;44.624;2022-12-20T11:12:57;4.6;;;2.8;;
49582;SDS011;36329;48.816;44.624;2022-12-20T11:16:01;4.8;;;2.7;;
49582;SDS011;36329;48.816;44.624;2022-12-20T11:19:09;7.5;;;2.8;;
49582;SDS011;36329;48.816;44.624;2022-12-20T11:22:28;5.4;;;2.6;;
49582;SDS011;36329;48.816;44.624;2022-12-20T11:25:43;6.4;;;3.2;;
49582;SDS011;36329;48.816;44.624;2022-12-20T11:28:58;6.2;;;2.9;;
49582;SDS011;36329;48.816;44.624;2022-12-20T11:32:09;4;;;2.9;;
49582;SDS011;36329;48.816;44.624;2022-12-20T11:35:21;5.4;;;3.1;;
49582;SDS011;36329;48.816;44.624;2022-12-20T11:38:31;4.1;;;2.8;;
49582;SDS011;36329;48.816;44.624;2022-12-20T11:41:42;4.6;;;2.7;;
49582;SDS011;36329;48.816;44.624;2022-12-20T11:44:52;4.1;;;2.9;;
49582;SDS011;36329;48.816;44.624;2022-12-20T11:48:14;5.1;;;3.1;;
49582;SDS011;36329;48.816;44.624;2022-12-20T11:51:22;4.8;;;3.2;;
49582;SDS011;36329;48.816;44.624;2022-12-20T11:54:31;5.6;;;3.4;;
49582;SDS011;36329;48.816;44.624;2022-12-20T11:57:40;7.3;;;3.5;;
49582;SDS011;36329;48.816;44.624;2022-12-20T12:00:48;5.5;;;3.3;;
49582;SDS011;36329;48.816;44.624;2022-12-20T12:03:58;7;;;3.6;;
49582;SDS011;36329;48.816;44.624;2022-12-20T12:07:05;6.1;;;3.5;;
49582;SDS011;36329;48.816;44.624;2022-12-20T12:10:15;6;;;3.1;;
49582;SDS011;36329;48.816;44.624;2022-12-20T12:13:22;4.2;;;2.9;;
49582;SDS011;36329;48.816;44.624;2022-12-20T12:16:28;6.5;;;3;;
49582;SDS011;36329;48.816;44.624;2022-12-20T12:19:36;4.2;;;2.8;;
49582;SDS011;36329;48.816;44.624;2022-12-20T12:22:43;7.8;;;3.1;;
49582;SDS011;36329;48.816;44.624;2022-12-20T12:25:48;11.2;;;3.1;;
49582;SDS011;36329;48.816;44.624;2022-12-20T12:28:52;6;;;3.3;;
49582;SDS011;36329;48.816;44.624;2022-12-20T12:31:57;3.9;;;3;;
49582;SDS011;36329;48.816;44.624;2022-12-20T12:35:10;5.6;;;3.3;;
49582;SDS011;36329;48.816;44.624;2022-12-20T12:38:30;5.8;;;3.6;;
49582;SDS011;36329;48.816;44.624;2022-12-20T12:41:52;6;;;3.9;;
49582;SDS011;36329;48.816;44.624;2022-12-20T12:45:12;4.7;;;3;;
49582;SDS011;36329;48.816;44.624;2022-12-20T12:48:18;6.1;;;3.3;;
49582;SDS011;36329;48.816;44.624;2022-12-20T12:51:26;5.3;;;3.3;;
49582;SDS011;36329;48.816;44.624;2022-12-20T12:54:34;6.6;;;3;;
49582;SDS011;36329;48.816;44.624;2022-12-20T13:00:59;6.6;;;3.5;;
49582;SDS011;36329;48.816;44.624;2022-12-20T13:04:20;8.2;;;4.6;;
49582;SDS011;36329;48.816;44.624;2022-12-20T13:07:39;6.2;;;4.3;;
49582;SDS011;36329;48.816;44.624;2022-12-20T13:27:36;7.3;;;3.5;;
49582;SDS011;36329;48.816;44.624;2022-12-20T13:30:38;5.3;;;3.3;;
49582;SDS011;36329;48.816;44.624;2022-12-20T13:33:41;6.5;;;3.6;;
49582;SDS011;36329;48.816;44.624;2022-12-20T13:36:44;6.1;;;3.3;;
49582;SDS011;36329;48.816;44.624;2022-12-20T13:39:46;8.4;;;3.8;;
49582;SDS011;36329;48.816;44.624;2022-12-20T13:42:48;6.1;;;3.6;;
49582;SDS011;36329;48.816;44.624;2022-12-20T13:45:56;8.5;;;3.1;;
49582;SDS011;36329;48.816;44.624;2022-12-20T13:49:08;5.4;;;3.8;;
49582;SDS011;36329;48.816;44.624;2022-12-20T13:52:20;6.4;;;4;;
49582;SDS011;36329;48.816;44.624;2022-12-20T13:55:30;7.3;;;3.9;;
49582;SDS011;36329;48.816;44.624;2022-12-20T13:58:33;7.1;;;4.2;;
49582;SDS011;36329;48.816;44.624;2022-12-20T14:01:35;5;;;3.4;;
49582;SDS011;36329;48.816;44.624;2022-12-20T14:04:38;8.4;;;3.7;;
49582;SDS011;36329;48.816;44.624;2022-12-20T14:07:42;6.4;;;3.9;;
49582;SDS011;36329;48.816;44.624;2022-12-20T14:10:46;6.9;;;3.9;;
49582;SDS011;36329;48.816;44.624;2022-12-20T14:13:50;8.2;;;4.2;;
49582;SDS011;36329;48.816;44.624;2022-12-20T14:16:55;8.6;;;4.2;;
49582;SDS011;36329;48.816;44.624;2022-12-20T14:20:05;7.2;;;4.6;;
49582;SDS011;36329;48.816;44.624;2022-12-20T14:23:14;9.2;;;4.9;;
49582;SDS011;36329;48.816;44.624;2022-12-20T14:26:21;7.6;;;4.7;;
49582;SDS011;36329;48.816;44.624;2022-12-20T14:29:27;9.3;;;5.1;;
49582;SDS011;36329;48.816;44.624;2022-12-20T14:32:31;13.6;;;5.4;;
49582;SDS011;36329;48.816;44.624;2022-12-20T14:35:33;9;;;5.1;;
49582;SDS011;36329;48.816;44.624;2022-12-20T14:38:35;11.4;;;5.7;;
49582;SDS011;36329;48.816;44.624;2022-12-20T14:41:39;11;;;5.4;;
49582;SDS011;36329;48.816;44.624;2022-12-20T14:44:45;9.7;;;5.4;;
49582;SDS011;36329;48.816;44.624;2022-12-20T14:47:48;12.6;;;5.8;;
49582;SDS011;36329;48.816;44.624;2022-12-20T14:50:54;12;;;6;;
49582;SDS011;36329;48.816;44.624;2022-12-20T14:53:56;12.2;;;5.8;;
49582;SDS011;36329;48.816;44.624;2022-12-20T14:56:59;12.5;;;5.6;;
49582;SDS011;36329;48.816;44.624;2022-12-20T15:00:04;11.4;;;6.1;;
49582;SDS011;36329;48.816;44.624;2022-12-20T15:03:15;10;;;5.8;;
49582;SDS011;36329;48.816;44.624;2022-12-20T15:09:36;11.9;;;6.9;;
49582;SDS011;36329;48.816;44.624;2022-12-20T15:12:38;12.3;;;7;;
49582;SDS011;36329;48.816;44.624;2022-12-20T15:15:40;13.1;;;7.2;;
49582;SDS011;36329;48.816;44.624;2022-12-20T15:18:42;16.1;;;7.3;;
49582;SDS011;36329;48.816;44.624;2022-12-20T15:21:44;14.8;;;7.1;;
49582;SDS011;36329;48.816;44.624;2022-12-20T15:24:46;12;;;6.9;;
49582;SDS011;36329;48.816;44.624;2022-12-20T15:27:48;15.2;;;7.5;;
49582;SDS011;36329;48.816;44.624;2022-12-20T15:30:50;10.6;;;6.3;;
49582;SDS011;36329;48.816;44.624;2022-12-20T15:33:53;12.9;;;7.2;;
49582;SDS011;36329;48.816;44.624;2022-12-20T15:36:55;14.7;;;6.8;;
49582;SDS011;36329;48.816;44.624;2022-12-20T15:39:57;10.9;;;6.7;;
49582;SDS011;36329;48.816;44.624;2022-12-20T15:43:01;10.7;;;6.6;;
49582;SDS011;36329;48.816;44.624;2022-12-20T15:46:03;10.7;;;6.7;;
49582;SDS011;36329;48.816;44.624;2022-12-20T15:49:05;12.7;;;6.6;;
49582;SDS011;36329;48.816;44.624;2022-12-20T15:52:11;11.2;;;6.6;;
49582;SDS011;36329;48.816;44.624;2022-12-20T15:55:20;15.6;;;7.6;;
49582;SDS011;36329;48.816;44.624;2022-12-20T15:58:22;11;;;6.7;;
49582;SDS011;36329;48.816;44.624;2022-12-20T16:01:24;11.6;;;6.1;;
49582;SDS011;36329;48.816;44.624;2022-12-20T16:04:29;12.6;;;6.2;;
49582;SDS011;36329;48.816;44.624;2022-12-20T16:07:31;11.1;;;6.3;;
49582;SDS011;36329;48.816;44.624;2022-12-20T16:10:32;10.6;;;6.2;;
49582;SDS011;36329;48.816;44.624;2022-12-20T16:13:34;10.4;;;6.4;;
49582;SDS011;36329;48.816;44.624;2022-12-20T16:16:36;12.3;;;6.3;;
49582;SDS011;36329;48.816;44.624;2022-12-20T16:19:38;11.3;;;6.7;;
49582;SDS011;36329;48.816;44.624;2022-12-20T16:22:39;11;;;6.5;;
49582;SDS011;36329;48.816;44.624;2022-12-20T16:25:41;10.5;;;6.7;;
49582;SDS011;36329;48.816;44.624;2022-12-20T16:28:43;13.2;;;6.6;;
49582;SDS011;36329;48.816;44.624;2022-12-20T16:31:45;11.6;;;6.2;;
49582;SDS011;36329;48.816;44.624;2022-12-20T16:34:46;13.1;;;6.9;;
49582;SDS011;36329;48.816;44.624;2022-12-20T16:37:49;13.9;;;6.5;;
49582;SDS011;36329;48.816;44.624;2022-12-20T16:40:51;14.9;;;6.9;;
49582;SDS011;36329;48.816;44.624;2022-12-20T16:43:53;12.4;;;6.6;;
49582;SDS011;36329;48.816;44.624;2022-12-20T16:46:55;12.2;;;6.6;;
49582;SDS011;36329;48.816;44.624;2022-12-20T16:49:57;16.6;;;6.6;;
49582;SDS011;36329;48.816;44.624;2022-12-20T16:52:59;11.8;;;6.6;;
49582;SDS011;36329;48.816;44.624;2022-12-20T16:56:01;11.2;;;6.6;;
49582;SDS011;36329;48.816;44.624;2022-12-20T16:59:04;8.9;;;5.9;;
49582;SDS011;36329;48.816;44.624;2022-12-20T17:02:11;12.4;;;6.5;;
49582;SDS011;36329;48.816;44.624;2022-12-20T17:05:25;11.6;;;6.4;;
49582;SDS011;36329;48.816;44.624;2022-12-20T17:08:29;11.3;;;6.4;;
49582;SDS011;36329;48.816;44.624;2022-12-20T17:11:30;12.8;;;6.8;;
49582;SDS011;36329;48.816;44.624;2022-12-20T17:14:32;15.2;;;7;;
49582;SDS011;36329;48.816;44.624;2022-12-20T17:17:34;12.1;;;7.1;;
49582;SDS011;36329;48.816;44.624;2022-12-20T17:20:35;11.4;;;6.6;;
49582;SDS011;36329;48.816;44.624;2022-12-20T17:23:37;12.3;;;6.8;;
49582;SDS011;36329;48.816;44.624;2022-12-20T17:26:38;12.3;;;6.4;;
49582;SDS011;36329;48.816;44.624;2022-12-20T17:29:40;12.5;;;6.7;;
49582;SDS011;36329;48.816;44.624;2022-12-20T17:32:41;11.2;;;6.5;;
49582;SDS011;36329;48.816;44.624;2022-12-20T17:35:43;10.9;;;6.2;;
49582;SDS011;36329;48.816;44.624;2022-12-20T17:38:45;13.5;;;6.3;;
49582;SDS011;36329;48.816;44.624;2022-12-20T17:41:46;11;;;5.9;;
49582;SDS011;36329;48.816;44.624;2022-12-20T17:44:49;11.7;;;6.4;;
49582;SDS011;36329;48.816;44.624;2022-12-20T17:47:51;9.9;;;5.7;;
49582;SDS011;36329;48.816;44.624;2022-12-20T17:50:53;12.8;;;6.2;;
49582;SDS011;36329;48.816;44.624;2022-12-20T17:53:55;10.3;;;5.6;;
49582;SDS011;36329;48.816;44.624;2022-12-20T17:57:01;9.8;;;5.4;;
49582;SDS011;36329;48.816;44.624;2022-12-20T18:00:02;11.1;;;5.7;;
49582;SDS011;36329;48.816;44.624;2022-12-20T18:03:04;10.4;;;5.8;;
49582;SDS011;36329;48.816;44.624;2022-12-20T18:06:07;12.6;;;5.8;;
49582;SDS011;36329;48.816;44.624;2022-12-20T18:09:11;13.3;;;6.5;;
49582;SDS011;36329;48.816;44.624;2022-12-20T18:12:14;11.4;;;5.7;;
49582;SDS011;36329;48.816;44.624;2022-12-20T18:15:16;12.8;;;6.3;;
49582;SDS011;36329;48.816;44.624;2022-12-20T18:18:18;12.1;;;6;;
49582;SDS011;36329;48.816;44.624;2022-12-20T18:21:20;11.2;;;6;;
49582;SDS011;36329;48.816;44.624;2022-12-20T18:24:23;11.6;;;6.2;;
49582;SDS011;36329;48.816;44.624;2022-12-20T18:27:25;11.6;;;6.3;;
49582;SDS011;36329;48.816;44.624;2022-12-20T18:30:27;10.3;;;6.2;;
49582;SDS011;36329;48.816;44.624;2022-12-20T18:33:28;10.9;;;5.8;;
49582;SDS011;36329;48.816;44.624;2022-12-20T18:36:31;13.1;;;6;;
49582;SDS011;36329;48.816;44.624;2022-12-20T18:39:34;12.2;;;6;;
49582;SDS011;36329;48.816;44.624;2022-12-20T18:42:36;13.3;;;6.5;;
49582;SDS011;36329;48.816;44.624;2022-12-20T18:45:37;13.3;;;6.2;;
49582;SDS011;36329;48.816;44.624;2022-12-20T18:48:39;9.9;;;5.7;;
49582;SDS011;36329;48.816;44.624;2022-12-20T18:51:41;10.7;;;5.3;;
49582;SDS011;36329;48.816;44.624;2022-12-20T18:54:43;11;;;5.8;;
49582;SDS011;36329;48.816;44.624;2022-12-20T18:57:45;12.4;;;5.6;;
49582;SDS011;36329;48.816;44.624;2022-12-20T19:00:48;10.7;;;5.9;;
49582;SDS011;36329;48.816;44.624;2022-12-20T19:03:52;10.3;;;5.6;;
49582;SDS011;36329;48.816;44.624;2022-12-20T19:06:56;10.4;;;5.5;;
49582;SDS011;36329;48.816;44.624;2022-12-20T19:09:59;12.6;;;6;;